createdAt,value
2023-02-27T00:00:21.642Z,102078.84
2023-02-27T00:00:43.304Z,102077.09
2023-02-27T00:01:06.375Z,102078.84
2023-02-27T00:01:29.178Z,102077.13
2023-02-27T00:01:50.789Z,102074.53
2023-02-27T00:02:12.386Z,102076.34
2023-02-27T00:02:37.078Z,102080.75
2023-02-27T00:02:59.784Z,102079.06
2023-02-27T00:03:21.462Z,102075.25
2023-02-27T00:03:43.114Z,102072.72
2023-02-27T00:04:06.067Z,102079.84
2023-02-27T00:04:29.152Z,102076.25
2023-02-27T00:04:50.777Z,102076.31
2023-02-27T00:05:12.865Z,102085.19
2023-02-27T00:05:34.469Z,102084.31
2023-02-27T00:05:57.867Z,102083.50
2023-02-27T00:06:19.462Z,102081.78
2023-02-27T00:06:41.177Z,102072.16
2023-02-27T00:07:04.014Z,102080.09
2023-02-27T00:07:28.662Z,102077.31
2023-02-27T00:07:50.985Z,102079.09
2023-02-27T00:08:15.529Z,102081.72
2023-02-27T00:08:38.170Z,102083.56
2023-02-27T00:09:00.232Z,102082.56
2023-02-27T00:09:21.937Z,102085.22
2023-02-27T00:09:43.778Z,102088.81
2023-02-27T00:10:07.728Z,102088.78
2023-02-27T00:10:29.312Z,102087.94
2023-02-27T00:10:50.936Z,102080.94
2023-02-27T00:11:12.787Z,102075.56
2023-02-27T00:11:35.620Z,102080.06
2023-02-27T00:11:57.286Z,102080.09
2023-02-27T00:12:19.156Z,102088.91
2023-02-27T00:12:41.229Z,102086.28
2023-02-27T00:13:03.869Z,102076.53
2023-02-27T00:13:25.756Z,102088.91
2023-02-27T00:13:49.160Z,102081.06
2023-02-27T00:14:10.924Z,102086.31
2023-02-27T00:14:33.568Z,102086.31
2023-02-27T00:14:55.134Z,102083.56
2023-02-27T00:15:19.800Z,102080.00
2023-02-27T00:15:41.392Z,102080.97
2023-02-27T00:16:04.027Z,102085.19
2023-02-27T00:16:25.670Z,102079.03
2023-02-27T00:16:47.295Z,102084.34
2023-02-27T00:17:08.900Z,102079.94
2023-02-27T00:17:31.541Z,102086.06
2023-02-27T00:17:56.223Z,102084.34
2023-02-27T00:18:18.056Z,102085.16
2023-02-27T00:18:39.702Z,102083.31
2023-02-27T00:19:04.670Z,102075.41
2023-02-27T00:19:26.893Z,102082.47
2023-02-27T00:19:48.585Z,102087.75
2023-02-27T00:20:13.729Z,102079.81
2023-02-27T00:20:38.034Z,102084.28
2023-02-27T00:20:59.720Z,102072.72
2023-02-27T00:21:21.311Z,102085.13
2023-02-27T00:21:44.559Z,102074.69
2023-02-27T00:22:07.067Z,102088.75
2023-02-27T00:22:28.697Z,102079.97
2023-02-27T00:22:50.404Z,102079.94
2023-02-27T00:23:12.008Z,102088.78
2023-02-27T00:23:35.197Z,102080.91
2023-02-27T00:23:57.024Z,102083.31
2023-02-27T00:24:18.953Z,102081.56
2023-02-27T00:45:08.996Z,102091.97
2023-02-27T00:46:22.995Z,102097.22
2023-02-27T00:46:47.107Z,102097.06
2023-02-27T00:47:08.718Z,102092.75
2023-02-27T00:47:30.407Z,102096.97
2023-02-27T00:47:52.052Z,102096.19
2023-02-27T00:48:15.351Z,102103.28
2023-02-27T00:48:37.381Z,102092.81
2023-02-27T00:48:59.022Z,102094.56
2023-02-27T00:49:20.816Z,102098.13
2023-02-27T00:49:43.380Z,102092.94
2023-02-27T00:50:05.908Z,102090.34
2023-02-27T00:50:27.641Z,102094.81
2023-02-27T00:50:50.689Z,102086.84
2023-02-27T00:51:13.393Z,102100.13
2023-02-27T00:51:35.264Z,102093.13
2023-02-27T00:51:58.093Z,102091.38
2023-02-27T00:52:19.717Z,102089.53
2023-02-27T00:52:42.400Z,102097.50
2023-02-27T00:53:04.027Z,102093.13
2023-02-27T00:53:26.721Z,102096.72
2023-02-27T00:53:48.845Z,102095.91
2023-02-27T00:54:11.450Z,102057.03
2023-02-27T00:54:32.978Z,102086.22
2023-02-27T00:54:55.464Z,102095.03
2023-02-27T00:55:17.218Z,102098.63
2023-02-27T00:55:39.802Z,102094.25
2023-02-27T00:56:01.418Z,102092.56
2023-02-27T00:56:23.117Z,102091.75
2023-02-27T00:56:45.350Z,102095.25
2023-02-27T00:57:09.235Z,102088.25
2023-02-27T00:57:31.032Z,102093.56
2023-02-27T00:57:52.950Z,102100.59
2023-02-27T00:58:15.776Z,102090.97
2023-02-27T00:58:37.665Z,102091.03
2023-02-27T00:58:59.318Z,102093.69
2023-02-27T00:59:21.593Z,102091.13
2023-02-27T00:59:44.147Z,102087.63
2023-02-27T01:00:10.029Z,102072.56
2023-02-27T01:00:32.085Z,102090.31
2023-02-27T01:00:55.838Z,102092.13
2023-02-27T01:01:18.845Z,102086.91
2023-02-27T01:01:40.700Z,102085.13
2023-02-27T01:02:02.584Z,102081.56
2023-02-27T01:02:25.813Z,102087.75
2023-02-27T01:02:50.178Z,102085.13
2023-02-27T01:03:11.921Z,102088.59
2023-02-27T01:03:33.719Z,102078.06
2023-02-27T01:03:56.337Z,102093.91
2023-02-27T01:04:18.007Z,102095.72
2023-02-27T01:04:39.872Z,102093.97
2023-02-27T01:05:02.461Z,102088.72
2023-02-27T01:05:26.497Z,102094.03
2023-02-27T01:05:48.144Z,102089.69
2023-02-27T01:06:09.776Z,102089.63
2023-02-27T01:06:31.675Z,102094.94
2023-02-27T01:06:53.518Z,102092.13
2023-02-27T01:07:16.146Z,102088.66
2023-02-27T01:07:37.807Z,102092.19
2023-02-27T01:07:59.553Z,102096.59
2023-02-27T01:08:21.269Z,102090.50
2023-02-27T01:08:43.915Z,102091.34
2023-02-27T01:09:05.861Z,102083.47
2023-02-27T01:09:29.043Z,102090.50
2023-02-27T01:09:50.625Z,102091.41
2023-02-27T01:10:16.091Z,102087.00
2023-02-27T01:10:38.097Z,102090.56
2023-02-27T01:11:01.601Z,102091.44
2023-02-27T01:11:27.149Z,102095.75
2023-02-27T01:11:50.843Z,102085.22
2023-02-27T01:12:12.589Z,102088.75
2023-02-27T01:12:34.235Z,102091.44
2023-02-27T01:12:55.910Z,102090.59
2023-02-27T01:13:18.489Z,102089.78
2023-02-27T01:13:40.145Z,102091.56
2023-02-27T01:33:00.860Z,102082.47
2023-02-27T01:33:51.355Z,102085.13
2023-02-27T01:34:39.242Z,102076.34
2023-02-27T01:35:01.071Z,102076.34
2023-02-27T01:35:22.820Z,102082.56
2023-02-27T01:35:44.557Z,102078.16
2023-02-27T01:36:08.916Z,102073.75
2023-02-27T01:36:30.541Z,102084.34
2023-02-27T01:37:34.490Z,102073.75
2023-02-27T01:37:57.110Z,102082.53
2023-02-27T01:38:18.749Z,102073.75
2023-02-27T01:38:40.432Z,102081.69
2023-02-27T01:39:02.151Z,102089.59
2023-02-27T01:39:26.141Z,102074.72
2023-02-27T01:39:47.748Z,102081.75
2023-02-27T01:40:10.461Z,102079.13
2023-02-27T01:40:36.036Z,102072.94
2023-02-27T01:40:57.689Z,102082.59
2023-02-27T01:41:20.291Z,102081.72
2023-02-27T01:41:41.893Z,102085.19
2023-02-27T01:42:04.011Z,102077.31
2023-02-27T01:42:27.879Z,102079.91
2023-02-27T01:42:52.373Z,102087.84
2023-02-27T01:43:16.362Z,102085.19
2023-02-27T01:43:54.127Z,102071.09
2023-02-27T01:44:15.927Z,102080.78
2023-02-27T01:45:32.351Z,102080.91
2023-02-27T01:45:54.257Z,102073.81
2023-02-27T01:46:15.899Z,102079.09
2023-02-27T01:46:40.096Z,102068.44
2023-02-27T01:47:02.677Z,102074.63
2023-02-27T01:47:24.260Z,102073.75
2023-02-27T01:47:48.464Z,102075.56
2023-02-27T01:48:18.295Z,102070.31
2023-02-27T01:48:41.018Z,102075.56
2023-02-27T01:49:07.988Z,102067.69
2023-02-27T01:49:33.588Z,102068.56
2023-02-27T01:49:55.781Z,102080.03
2023-02-27T01:50:19.285Z,102081.72
2023-02-27T01:50:47.659Z,102072.09
2023-02-27T01:51:14.328Z,102071.22
2023-02-27T01:51:40.174Z,102073.91
2023-02-27T01:52:07.053Z,102075.66
2023-02-27T01:52:31.186Z,102071.25
2023-02-27T01:52:56.155Z,102078.19
2023-02-27T01:53:19.511Z,102077.38
2023-02-27T01:53:45.154Z,102079.13
2023-02-27T01:54:09.908Z,102077.41
2023-02-27T01:54:35.032Z,102083.56
2023-02-27T01:54:59.281Z,102076.56
2023-02-27T01:55:22.966Z,102078.31
2023-02-27T01:55:47.700Z,102083.53
2023-02-27T01:56:17.890Z,102073.03
2023-02-27T01:56:41.494Z,102083.63
2023-02-27T01:57:06.621Z,102075.75
2023-02-27T01:57:28.368Z,102073.13
2023-02-27T01:57:51.395Z,102074.03
2023-02-27T01:58:14.854Z,102083.63
2023-02-27T01:58:38.547Z,102080.19
2023-02-27T01:59:03.435Z,102057.25
2023-02-27T01:59:25.597Z,102074.91
2023-02-27T01:59:47.250Z,102078.41
2023-02-27T02:00:10.503Z,102074.03
2023-02-27T02:00:36.060Z,102077.53
2023-02-27T02:00:57.714Z,102073.13
2023-02-27T02:01:20.466Z,102072.22
2023-02-27T02:01:43.455Z,102078.44
2023-02-27T02:02:09.566Z,102074.91
2023-02-27T02:02:37.146Z,102073.13
2023-02-27T02:03:07.341Z,102074.91
2023-02-27T02:20:26.940Z,102082.09
2023-02-27T02:21:31.847Z,102082.13
2023-02-27T02:22:25.168Z,102080.34
2023-02-27T02:23:21.972Z,102076.88
2023-02-27T02:24:19.843Z,102078.66
2023-02-27T02:25:37.591Z,102076.00
2023-02-27T02:26:24.696Z,102075.22
2023-02-27T02:27:03.911Z,102070.84
2023-02-27T02:27:39.643Z,102081.41
2023-02-27T02:28:13.540Z,102075.38
2023-02-27T02:29:02.513Z,102072.72
2023-02-27T02:30:13.700Z,102068.22
2023-02-27T02:31:04.776Z,102083.16
2023-02-27T02:31:56.324Z,102081.41
2023-02-27T02:32:48.819Z,102074.41
2023-02-27T02:33:39.506Z,102087.44
2023-02-27T02:34:25.634Z,102083.03
2023-02-27T02:35:27.922Z,102082.25
2023-02-27T02:36:35.648Z,102086.63
2023-02-27T02:37:23.416Z,102080.56
2023-02-27T02:38:08.596Z,102077.00
2023-02-27T02:38:48.944Z,102084.78
2023-02-27T02:39:25.830Z,102087.47
2023-02-27T02:40:05.818Z,102067.25
2023-02-27T02:40:35.912Z,102074.41
2023-02-27T02:41:08.257Z,102077.03
2023-02-27T02:41:42.618Z,102082.19
2023-02-27T02:42:10.927Z,102081.41
2023-02-27T02:42:39.648Z,102081.38
2023-02-27T02:43:08.466Z,102079.56
2023-02-27T02:43:40.903Z,102047.75
2023-02-27T02:44:09.206Z,102071.63
2023-02-27T02:44:40.728Z,102081.41
2023-02-27T02:45:13.807Z,102084.09
2023-02-27T02:45:44.872Z,102074.41
2023-02-27T02:46:13.469Z,102083.19
2023-02-27T02:46:43.990Z,102084.03
2023-02-27T02:47:13.401Z,102091.88
2023-02-27T02:47:43.372Z,102100.69
2023-02-27T02:48:12.082Z,102086.63
2023-02-27T02:48:44.207Z,102087.53
2023-02-27T02:49:15.278Z,102079.56
2023-02-27T02:49:45.688Z,102090.19
2023-02-27T02:50:13.546Z,102086.63
2023-02-27T02:50:44.020Z,102080.50
2023-02-27T03:09:54.426Z,102087.81
2023-02-27T03:10:39.795Z,102095.66
2023-02-27T03:11:03.731Z,102083.25
2023-02-27T03:11:30.688Z,102091.31
2023-02-27T03:11:57.177Z,102072.69
2023-02-27T03:12:22.505Z,102088.66
2023-02-27T03:12:49.716Z,102072.75
2023-02-27T03:13:18.836Z,102088.56
2023-02-27T03:13:47.841Z,102096.53
2023-02-27T03:14:13.402Z,102096.53
2023-02-27T03:14:40.761Z,102071.78
2023-02-27T03:15:07.241Z,102087.06
2023-02-27T03:15:33.603Z,102094.97
2023-02-27T03:16:02.213Z,102094.94
2023-02-27T03:16:29.578Z,102087.03
2023-02-27T03:16:55.924Z,102093.28
2023-02-27T03:17:24.004Z,102092.44
2023-02-27T03:17:49.509Z,102089.88
2023-02-27T03:18:20.621Z,102088.00
2023-02-27T03:18:49.304Z,102076.53
2023-02-27T03:19:13.898Z,102088.13
2023-02-27T03:19:42.484Z,102096.00
2023-02-27T03:20:08.977Z,102087.25
2023-02-27T03:20:34.017Z,102092.50
2023-02-27T03:20:59.732Z,102092.50
2023-02-27T03:21:28.611Z,102095.97
2023-02-27T03:21:55.417Z,102088.91
2023-02-27T03:22:20.561Z,102100.41
2023-02-27T03:22:47.617Z,102097.78
2023-02-27T03:23:14.048Z,102098.69
2023-02-27T03:23:42.739Z,102093.47
2023-02-27T03:24:10.311Z,102096.09
2023-02-27T03:24:39.828Z,102097.88
2023-02-27T03:25:06.334Z,102089.97
2023-02-27T03:25:30.346Z,102095.22
2023-02-27T03:25:53.834Z,102102.25
2023-02-27T03:26:19.986Z,102096.06
2023-02-27T03:26:45.567Z,102098.69
2023-02-27T03:27:09.175Z,102097.00
2023-02-27T03:27:35.636Z,102103.06
2023-02-27T03:28:02.138Z,102102.28
2023-02-27T03:28:28.993Z,102102.25
2023-02-27T03:29:00.850Z,102100.47
2023-02-27T03:29:28.320Z,102104.88
2023-02-27T03:29:57.670Z,102104.88
2023-02-27T03:30:26.311Z,102102.25
2023-02-27T03:30:53.502Z,102103.09
2023-02-27T03:31:22.579Z,102106.59
2023-02-27T03:31:49.908Z,102107.41
2023-02-27T03:32:16.432Z,102110.00
2023-02-27T03:32:43.150Z,102103.81
2023-02-27T03:33:11.816Z,102111.69
2023-02-27T03:33:39.785Z,102089.53
2023-02-27T03:34:09.090Z,102108.97
2023-02-27T03:34:34.943Z,102101.03
2023-02-27T03:35:00.267Z,102106.25
2023-02-27T03:35:25.515Z,102108.03
2023-02-27T03:35:51.477Z,102112.50
2023-02-27T03:36:20.575Z,102113.34
2023-02-27T03:36:50.981Z,102113.47
2023-02-27T03:37:22.936Z,102096.66
2023-02-27T03:37:54.668Z,102113.41
2023-02-27T03:38:24.956Z,102099.28
2023-02-27T03:38:51.588Z,102106.41
2023-02-27T03:39:24.198Z,102123.00
2023-02-27T03:39:48.972Z,102108.91
2023-02-27T03:40:25.026Z,102117.72
2023-02-27T03:40:52.708Z,102113.34
2023-02-27T03:41:28.393Z,102106.31
2023-02-27T03:42:11.764Z,102107.22
2023-02-27T03:43:05.731Z,102110.66
2023-02-27T03:43:52.748Z,102107.97
2023-02-27T03:44:25.805Z,102108.81
2023-02-27T03:44:55.872Z,102109.69
2023-02-27T03:45:26.586Z,102107.97
2023-02-27T03:45:56.740Z,102113.22
2023-02-27T03:46:22.222Z,102107.94
2023-02-27T03:46:46.926Z,102104.34
2023-02-27T03:47:09.270Z,102115.81
2023-02-27T03:47:31.924Z,102101.78
2023-02-27T03:47:53.964Z,102114.84
2023-02-27T03:48:15.801Z,102104.38
2023-02-27T03:48:38.609Z,102108.75
2023-02-27T03:49:00.255Z,102108.72
2023-02-27T03:49:21.892Z,102113.09
2023-02-27T03:49:44.487Z,102109.59
2023-02-27T03:50:07.985Z,102110.53
2023-02-27T03:50:29.871Z,102112.31
2023-02-27T03:50:51.636Z,102109.69
2023-02-27T03:51:15.208Z,102110.66
2023-02-27T03:51:38.054Z,102101.88
2023-02-27T03:51:59.695Z,102109.78
2023-02-27T03:52:23.468Z,102111.53
2023-02-27T03:52:45.712Z,102089.47
2023-02-27T03:53:17.604Z,102105.44
2023-02-27T03:53:47.600Z,102105.38
2023-02-27T03:54:14.315Z,102107.16
2023-02-27T03:54:40.357Z,102105.38
2023-02-27T03:55:08.118Z,102101.78
2023-02-27T03:55:35.918Z,102104.41
2023-02-27T03:56:00.955Z,102100.88
2023-02-27T03:56:28.282Z,102105.22
2023-02-27T03:56:55.770Z,102106.09
2023-02-27T03:57:17.422Z,102102.59
2023-02-27T03:57:40.699Z,102103.50
2023-02-27T03:58:02.498Z,102103.47
2023-02-27T03:58:25.831Z,102092.75
2023-02-27T03:58:47.732Z,102108.63
2023-02-27T03:59:09.721Z,102105.16
2023-02-27T03:59:37.623Z,102111.34
2023-02-27T04:00:01.942Z,102110.41
2023-02-27T04:00:27.443Z,102106.00
2023-02-27T04:00:49.366Z,102108.66
2023-02-27T04:01:11.714Z,102107.78
2023-02-27T04:01:35.411Z,102113.06
2023-02-27T04:01:58.874Z,102114.84
2023-02-27T04:02:21.237Z,102110.47
2023-02-27T04:02:46.392Z,102106.09
2023-02-27T04:03:11.838Z,102111.28
2023-02-27T04:03:40.987Z,102109.53
2023-02-27T04:04:10.442Z,102108.50
2023-02-27T04:04:50.806Z,102121.81
2023-02-27T04:05:31.532Z,102116.50
2023-02-27T04:06:20.431Z,102115.63
2023-02-27T04:07:05.380Z,102118.16
2023-02-27T04:07:35.893Z,102108.59
2023-02-27T04:08:14.188Z,102117.31
2023-02-27T04:08:50.737Z,102112.03
2023-02-27T04:09:23.957Z,102117.31
2023-02-27T04:10:18.591Z,102121.69
2023-02-27T04:11:02.582Z,102127.81
2023-02-27T04:11:34.512Z,102112.06
2023-02-27T04:12:20.973Z,102119.13
2023-02-27T04:13:01.741Z,102091.78
2023-02-27T04:13:38.900Z,102124.47
2023-02-27T04:14:15.515Z,102120.06
2023-02-27T04:14:46.631Z,102130.63
2023-02-27T04:15:18.570Z,102124.47
2023-02-27T04:15:53.029Z,102129.72
2023-02-27T04:16:39.676Z,102127.94
2023-02-27T04:17:19.034Z,102132.28
2023-02-27T04:17:49.771Z,102127.91
2023-02-27T04:18:24.997Z,102127.09
2023-02-27T04:18:59.758Z,102133.16
2023-02-27T04:19:36.895Z,102138.34
2023-02-27T04:20:20.919Z,102139.19
2023-02-27T04:20:46.624Z,102136.56
2023-02-27T04:21:11.356Z,102138.34
2023-02-27T04:21:38.337Z,102131.38
2023-02-27T04:22:12.790Z,102131.47
2023-02-27T04:22:39.950Z,102131.38
2023-02-27T04:23:05.451Z,102134.84
2023-02-27T04:23:37.971Z,102135.88
2023-02-27T04:24:11.949Z,102139.38
2023-02-27T04:24:39.441Z,102140.28
2023-02-27T04:25:16.568Z,102138.59
2023-02-27T04:25:54.793Z,102143.91
2023-02-27T04:26:26.589Z,102137.81
2023-02-27T04:26:54.740Z,102136.84
2023-02-27T04:27:25.146Z,102143.97
2023-02-27T04:27:52.768Z,102142.25
2023-02-27T04:28:17.584Z,102138.69
2023-02-27T04:28:43.833Z,102137.84
2023-02-27T04:29:12.052Z,102140.47
2023-02-27T04:29:44.429Z,102136.13
2023-02-27T04:30:17.469Z,102133.44
2023-02-27T04:30:46.807Z,102133.38
2023-02-27T04:31:15.768Z,102131.66
2023-02-27T04:31:45.680Z,102134.28
2023-02-27T04:32:19.822Z,102140.34
2023-02-27T04:32:45.136Z,102126.34
2023-02-27T04:33:10.862Z,102136.81
2023-02-27T04:33:45.930Z,102134.19
2023-02-27T04:34:16.022Z,102133.25
2023-02-27T04:34:42.368Z,102130.66
2023-02-27T04:35:10.194Z,102130.63
2023-02-27T04:35:35.991Z,102132.34
2023-02-27T04:36:02.842Z,102130.63
2023-02-27T04:36:31.083Z,102133.31
2023-02-27T04:37:01.240Z,102135.06
2023-02-27T04:37:28.796Z,102126.28
2023-02-27T04:37:56.886Z,102127.22
2023-02-27T04:38:22.932Z,102126.28
2023-02-27T04:38:49.167Z,102123.53
2023-02-27T04:39:18.063Z,102129.78
2023-02-27T04:39:44.667Z,102128.88
2023-02-27T04:40:10.294Z,102129.78
2023-02-27T04:40:37.542Z,102135.09
2023-02-27T04:41:03.896Z,102128.00
2023-02-27T04:41:29.952Z,102130.66
2023-02-27T04:41:54.894Z,102131.50
2023-02-27T04:42:20.981Z,102135.97
2023-02-27T04:42:47.285Z,102137.72
2023-02-27T04:43:11.694Z,102135.06
2023-02-27T04:43:37.427Z,102133.31
2023-02-27T04:44:01.709Z,102108.53
2023-02-27T04:44:26.980Z,102143.06
2023-02-27T04:44:50.343Z,102138.69
2023-02-27T04:45:16.813Z,102142.25
2023-02-27T04:45:41.338Z,102145.78
2023-02-27T04:46:07.534Z,102135.31
2023-02-27T04:46:30.955Z,102134.38
2023-02-27T04:46:55.172Z,102140.53
2023-02-27T04:47:19.140Z,102132.59
2023-02-27T04:47:47.739Z,102136.16
2023-02-27T04:48:15.783Z,102132.63
2023-02-27T04:48:41.430Z,102132.59
2023-02-27T04:49:10.172Z,102140.53
2023-02-27T04:49:37.829Z,102143.16
2023-02-27T04:50:05.206Z,102139.63
2023-02-27T04:50:30.511Z,102138.75
2023-02-27T04:50:58.787Z,102133.41
2023-02-27T04:51:25.850Z,102141.31
2023-02-27T04:51:53.002Z,102142.19
2023-02-27T04:52:20.725Z,102139.56
2023-02-27T04:52:48.469Z,102140.44
2023-02-27T04:53:16.005Z,102141.31
2023-02-27T04:53:43.330Z,102136.06
2023-02-27T04:54:12.570Z,102135.97
2023-02-27T04:54:40.784Z,102139.56
2023-02-27T04:55:08.366Z,102143.06
2023-02-27T04:55:35.159Z,102139.56
2023-02-27T04:56:02.423Z,102143.06
2023-02-27T04:56:29.055Z,102133.38
2023-02-27T04:56:53.882Z,102140.34
2023-02-27T04:57:20.560Z,102137.66
2023-02-27T04:57:48.402Z,102135.91
2023-02-27T04:58:13.917Z,102146.47
2023-02-27T04:58:39.557Z,102139.44
2023-02-27T04:59:07.569Z,102138.50
2023-02-27T04:59:33.685Z,102123.41
2023-02-27T04:59:57.915Z,102137.63
2023-02-27T05:00:23.310Z,102143.66
2023-02-27T05:00:48.554Z,102146.38
2023-02-27T05:01:18.244Z,102134.91
2023-02-27T05:01:43.624Z,102127.69
2023-02-27T05:02:12.112Z,102129.56
2023-02-27T05:02:37.979Z,102141.03
2023-02-27T05:03:07.061Z,102148.91
2023-02-27T05:03:33.028Z,102133.88
2023-02-27T05:03:58.361Z,102146.31
2023-02-27T05:04:26.366Z,102146.25
2023-02-27T05:04:49.943Z,102148.00
2023-02-27T05:05:15.212Z,102149.78
2023-02-27T05:05:41.159Z,102161.22
2023-02-27T05:06:03.145Z,102156.81
2023-02-27T05:06:29.404Z,102146.22
2023-02-27T05:06:56.161Z,102156.00
2023-02-27T05:07:22.099Z,102147.06
2023-02-27T05:07:50.438Z,102157.78
2023-02-27T05:08:22.419Z,102157.78
2023-02-27T05:08:53.898Z,102151.63
2023-02-27T05:09:22.543Z,102157.81
2023-02-27T05:09:50.676Z,102156.03
2023-02-27T05:10:16.370Z,102157.78
2023-02-27T05:10:44.458Z,102158.63
2023-02-27T05:11:12.570Z,102161.28
2023-02-27T05:11:43.856Z,102161.16
2023-02-27T05:12:11.221Z,102152.44
2023-02-27T05:12:39.808Z,102153.28
2023-02-27T05:13:09.690Z,102161.13
2023-02-27T05:13:37.573Z,102160.25
2023-02-27T05:14:04.773Z,102157.63
2023-02-27T05:14:33.501Z,102159.34
2023-02-27T05:15:01.280Z,102157.66
2023-02-27T05:15:28.288Z,102164.69
2023-02-27T05:15:55.672Z,102153.28
2023-02-27T05:16:24.102Z,102156.81
2023-02-27T05:16:50.341Z,102158.53
2023-02-27T05:17:18.189Z,102158.59
2023-02-27T05:17:47.554Z,102148.78
2023-02-27T05:18:11.827Z,102116.97
2023-02-27T05:18:33.799Z,102162.91
2023-02-27T05:18:57.617Z,102158.53
2023-02-27T05:19:20.764Z,102162.91
2023-02-27T05:19:44.027Z,102158.50
2023-02-27T05:20:07.363Z,102155.88
2023-02-27T05:20:36.347Z,102161.09
2023-02-27T05:21:06.738Z,102155.81
2023-02-27T05:21:34.284Z,102158.41
2023-02-27T05:22:01.898Z,102164.56
2023-02-27T05:22:34.830Z,102161.00
2023-02-27T05:23:02.238Z,102156.63
2023-02-27T05:23:32.156Z,102158.38
2023-02-27T05:24:06.405Z,102157.47
2023-02-27T05:24:37.013Z,102160.19
2023-02-27T05:25:07.037Z,102162.81
2023-02-27T05:25:37.931Z,102168.13
2023-02-27T05:26:06.905Z,102169.91
2023-02-27T05:26:40.936Z,102157.56
2023-02-27T05:27:16.737Z,102155.91
2023-02-27T05:27:46.836Z,102164.69
2023-02-27T05:28:14.845Z,102169.94
2023-02-27T05:28:40.629Z,102166.44
2023-02-27T05:29:09.199Z,102163.75
2023-02-27T05:29:39.925Z,102168.13
2023-02-27T05:30:09.185Z,102163.75
2023-02-27T05:30:37.578Z,102161.13
2023-02-27T05:31:05.050Z,102163.75
2023-02-27T05:31:31.918Z,102161.00
2023-02-27T05:31:57.391Z,102167.19
2023-02-27T05:32:28.858Z,102162.78
2023-02-27T05:32:56.464Z,102167.16
2023-02-27T05:33:21.113Z,102168.00
2023-02-27T05:33:50.050Z,102168.00
2023-02-27T05:34:16.799Z,102172.34
2023-02-27T05:34:44.517Z,102159.09
2023-02-27T05:35:18.648Z,102174.13
2023-02-27T05:35:48.688Z,102170.56
2023-02-27T05:36:15.920Z,102169.66
2023-02-27T05:36:43.722Z,102168.78
2023-02-27T05:37:11.409Z,102171.38
2023-02-27T05:37:37.228Z,102176.69
2023-02-27T05:38:05.231Z,102171.47
2023-02-27T05:38:32.322Z,102166.06
2023-02-27T05:39:00.155Z,102170.53
2023-02-27T05:39:26.983Z,102143.88
2023-02-27T05:39:50.763Z,102171.38
2023-02-27T05:40:17.892Z,102168.75
2023-02-27T05:40:44.278Z,102174.88
2023-02-27T05:41:10.503Z,102174.00
2023-02-27T05:41:38.174Z,102167.91
2023-02-27T05:42:06.051Z,102172.31
2023-02-27T05:42:34.294Z,102175.81
2023-02-27T05:43:01.415Z,102169.69
2023-02-27T05:43:29.702Z,102170.63
2023-02-27T05:43:57.025Z,102168.88
2023-02-27T05:44:22.237Z,102168.06
2023-02-27T05:44:55.269Z,102173.28
2023-02-27T05:45:20.559Z,102167.09
2023-02-27T05:45:45.983Z,102176.75
2023-02-27T05:46:14.629Z,102173.25
2023-02-27T05:46:39.130Z,102162.53
2023-02-27T05:47:05.715Z,102177.59
2023-02-27T05:47:32.284Z,102177.56
2023-02-27T05:48:00.432Z,102169.63
2023-02-27T05:48:26.967Z,102177.56
2023-02-27T05:48:54.606Z,102171.41
2023-02-27T05:49:19.158Z,102174.97
2023-02-27T05:49:44.305Z,102178.53
2023-02-27T05:50:10.057Z,102175.97
2023-02-27T05:50:35.991Z,102182.91
2023-02-27T05:50:59.225Z,102179.38
2023-02-27T05:51:23.781Z,102174.22
2023-02-27T05:51:50.365Z,102176.84
2023-02-27T05:52:18.308Z,102178.59
2023-02-27T05:52:41.311Z,102176.84
2023-02-27T05:53:05.917Z,102155.53
2023-02-27T05:53:33.401Z,102173.25
2023-02-27T05:54:01.013Z,102179.47
2023-02-27T05:54:30.094Z,102165.28
2023-02-27T05:54:56.813Z,102181.16
2023-02-27T05:55:23.921Z,102179.38
2023-02-27T05:55:48.874Z,102176.84
2023-02-27T05:56:15.959Z,102177.72
2023-02-27T05:56:40.134Z,102177.75
2023-02-27T05:57:08.690Z,102180.38
2023-02-27T05:57:36.670Z,102169.78
2023-02-27T05:58:05.948Z,102179.47
2023-02-27T05:58:33.612Z,102179.47
2023-02-27T05:59:00.458Z,102169.72
2023-02-27T05:59:27.171Z,102183.78
2023-02-27T05:59:55.353Z,102167.94
2023-02-27T06:00:22.800Z,102180.31
2023-02-27T06:00:49.227Z,102175.97
2023-02-27T06:01:12.315Z,102174.22
2023-02-27T06:01:35.093Z,102176.00
2023-02-27T06:01:56.804Z,102183.84
2023-02-27T06:02:18.502Z,102180.38
2023-02-27T06:02:42.535Z,102185.69
2023-02-27T06:03:06.830Z,102181.28
2023-02-27T06:03:31.210Z,102179.53
2023-02-27T06:03:54.049Z,102177.75
2023-02-27T06:04:15.755Z,102177.75
2023-02-27T06:04:38.400Z,102177.69
2023-02-27T06:05:00.105Z,102177.75
2023-02-27T06:05:23.923Z,102175.06
2023-02-27T06:05:46.045Z,102184.72
2023-02-27T06:06:13.430Z,102186.47
2023-02-27T06:06:35.814Z,102175.97
2023-02-27T06:06:57.914Z,102182.94
2023-02-27T06:07:19.549Z,102184.72
2023-02-27T06:07:43.601Z,102180.38
2023-02-27T06:08:06.219Z,102183.78
2023-02-27T06:08:28.684Z,102195.22
2023-02-27T06:08:50.433Z,102185.56
2023-02-27T06:09:12.062Z,102189.06
2023-02-27T06:09:35.308Z,102197.88
2023-02-27T06:09:56.991Z,102190.81
2023-02-27T06:10:20.345Z,102191.69
2023-02-27T06:10:41.973Z,102189.94
2023-02-27T06:11:04.677Z,102186.47
2023-02-27T06:11:26.460Z,102182.06
2023-02-27T06:11:49.455Z,102189.06
2023-02-27T06:12:12.917Z,102191.69
2023-02-27T06:12:35.678Z,102187.31
2023-02-27T06:12:57.271Z,102190.81
2023-02-27T06:13:19.029Z,102188.13
2023-02-27T06:13:42.066Z,102199.50
2023-02-27T06:14:08.106Z,102176.63
2023-02-27T06:14:29.756Z,102193.38
2023-02-27T06:14:51.738Z,102187.25
2023-02-27T06:15:13.536Z,102187.28
2023-02-27T06:15:36.382Z,102193.41
2023-02-27T06:15:58.117Z,102194.25
2023-02-27T06:16:19.982Z,102188.09
2023-02-27T06:16:41.684Z,102192.50
2023-02-27T06:17:03.416Z,102177.47
2023-02-27T06:17:26.108Z,102194.25
2023-02-27T06:17:47.942Z,102191.69
2023-02-27T06:18:10.480Z,102186.41
2023-02-27T06:18:32.105Z,102199.59
2023-02-27T06:18:55.455Z,102182.84
2023-02-27T06:19:17.330Z,102188.16
2023-02-27T06:19:38.972Z,102196.13
2023-02-27T06:20:00.637Z,102195.22
2023-02-27T06:20:23.333Z,102197.88
2023-02-27T06:20:45.703Z,102195.22
2023-02-27T06:21:07.376Z,102198.75
2023-02-27T06:21:29.279Z,102203.13
2023-02-27T06:21:51.819Z,102200.44
2023-02-27T06:22:13.438Z,102190.75
2023-02-27T06:22:35.229Z,102203.13
2023-02-27T06:22:56.838Z,102184.56
2023-02-27T06:23:19.469Z,102203.13
2023-02-27T06:23:41.075Z,102201.38
2023-02-27T06:24:03.123Z,102211.97
2023-02-27T06:24:26.424Z,102207.56
2023-02-27T06:24:49.057Z,102199.59
2023-02-27T06:25:10.853Z,102165.00